Wednesday, September 17, 2014
09:35 UTC
  |  Log In   |  Register Free
Airport Search:

Foothills Regional Airport
(KMRN)

Foothills Regional Airport Diagram
No Airport Diagram Available

FAA data valid effective July 24, 2014 until September 18, 2014 (unless otherwise noted).

 
 
 
 
 
 
 
 
 
 
 
 
 
 

Current Aviation Weather for Foothills Regional Airport (KMRN)

The most recent METAR observation for KMRN was updated at: 0918
METAR Summary (Translated METAR)
KMRN
170855Z AUTO 00000KT 7SM OVC024 18/18 A3005 RMK AO2 T01810180
KHKY
170853Z AUTO 35004KT 10SM OVC021 19/17 A3000 RMK AO2 SLP137 T01890172 55005
(11.8 nm SE from KMRN)
KFQD
170855Z AUTO 28008KT 7SM SCT044 SCT090 18/18 A2999 RMK AO2 T01840180
(28.3 nm SW from KMRN)
TAF Summary (Translated TAF)
KHKY
(11.8 nm SE from KMRN)
170540Z 1706/1806 01005KT P6SM BKN060 FM170800 02005KT 5SM BR BKN045 FM170900 03005KT 3SM BR BKN013 FM171700 04006KT P6SM BKN025 FM172300 05004KT P6SM SCT030
  Airport Weather Conditions for KMRN

 Current Weather at MRN
64° F
Mostly Cloudy
North winds at 0.0 mph
MRN NOAA Radar

Pressure: 30.05 in
Humidity: 98%
Wind: Calm
Dew Point: 63.9°F
Visibility: 7.00 mi


Airport Weather Forecast for KMRN

Translated METAR and TAF for KMRN
Translated METAR for KMRN (0930 UTC 17 September 2014)
found at http://aviationweather.gov/adds/metars/
 
METAR text: KMRN 170915Z AUTO 36003KT 10SM BKN024 OVC034 18/18 A3004 RMK AO2 T01800177
Conditions at: KMRN (MORGANTON/LENOIR, NC, US) observed 0915 UTC 17 September 2014
Temperature: 18.0°C (64°F)
Dewpoint: 17.7°C (64°F) [RH = 98%]
Pressure (altimeter): 30.04 inches Hg (1017.4 mb)
Winds: from the N (360 degrees) at 3 MPH (3 knots; 1.6 m/s)
Visibility: 10 or more miles (16+ km)
Ceiling: 2400 feet AGL
Clouds: broken clouds at 2400 feet AGL
overcast cloud deck at 3400 feet AGL
Weather: automated observation with no human augmentation;
there may or may not be significant weather present at this time
Translated TAF for KMRN

There is no translated TAF available for this airport

Find All Airport Services Find A Hotel Find A Rental Car Find A Golf Course Find A Restaurant $100 Hamburger



FBO's on the Field
FBO Company Facility Photos Services Transportation Aviation Fuel Prices: Prices include tax
Catering Weather Repair Courtesy Rental Type 100LL JetA JetA+ MOGAS 8087
 
Foothills Aviation

This FBO has not yet been rated
FS:Shell
Last Updated: Aug-28
Login to update fuel prices
SS:
Contact Foothills AviationMore FBO Information
 
Add another FBO Facility Photos Catering Weather Repair Courtesy Rental Type 100LL JetA JetA+ MOGAS 8087
Services Transportation Aviation Fuel Prices: Prices include tax


model-print
model-print
model-print
model-print